SBRPSBUR

Guest
Details From SBRP - LEITE LOPES
To SBUR - Uberaba
Flight Number -
Tags generated
Created
Modified
Stats Distance 83 nm / 154 km
Max Altitude 0 ft / 0 m
Waypoints 2
Social Downloads 2
Likes 0
Share VATSIM

Download

Looking for another format? Having issues loading an existing format? Contact us
Advertisement - Login to hide

Notes

Basic altitude profile: - Ascent Rate: 1500ft/min - Ascent Speed: 120kts - Cruise Altitude: 9500ft - Cruise Speed: 140kts - Descent Rate: 1500ft/min - Descent Speed: 140kts Options: - Use NATs: no - Use PACOTS: no - Use low airways: no - Use high airways: no

Route

SBRP SBUR

ID Type Via Altitude Latitude Longitude Leg Dist Tot Dist Heading (true) Name
O SBRP APT - 0 ft / 0 m -21.13417˚ -47.77419˚ - 0 nm - LEITE LOPES
O SBUR APT - 0 ft / 0 m -19.76500˚ -47.96478˚ 82 nm 82 nm 353° / 353° Uberaba

Altitude Profile

Advertisement - Login to hide

SBRP

Details ICAO SBRP (RAO)
Name LEITE LOPES
Region Brazil
Timezone America/Sao_Paulo (UTC-2.0)
Stats Elevation 1,802 ft / 549 m (AMSL)
Location -21.134166° -47.774189°
Runways 1
Magnetic Variation 21.204° W

METAR

SBRP 151400Z 09007KT 9999 SCT045 30/18 Q1015

Decode

TAF

TAF SBRP 150808Z 1512/1612 08008KT CAVOK TX31/1518Z TN21/1609Z BECMG 1514/1516 SCT040 BECMG 1519/1521 11005KT CAVOK RMK PGF

Decode

Departure Runways

ID Width Length Bearing (true) Bearing (mag) Surface Threshold Offset Overrun Length
18 115 ft / 35 m 6,918 ft / 2,109 m 163.40° 184.60° Asphalt 657 ft / 200 m 0 ft / 0 m
36 115 ft / 35 m 6,918 ft / 2,109 m 343.40° 4.60° Asphalt 328 ft / 100 m 0 ft / 0 m

SBUR

Details ICAO SBUR (UBA)
Name Uberaba
Region Brazil
Timezone America/Sao_Paulo (UTC-2.0)
Stats Elevation 2,655 ft / 809 m (AMSL)
Location -19.765000° -47.964777°
Runways 1
Magnetic Variation 21.285° W

METAR

SBUR 151400Z 06009KT 9999 BKN030 26/17 Q1018

Decode

TAF

TAF SBUR 150808Z 1512/1524 05010KT 9999 SCT020TN23/1512Z TX28/1518Z BECMG 1513/1515 BKN035 BECMG 1517/1519 13008KT SHRA SCT045 FEW050TCU BECMG 1521/1523 06005KT CAVOK RMK PGF

Decode

Destination Runways

ID Width Length Bearing (true) Bearing (mag) Surface Threshold Offset Overrun Length
17 148 ft / 45 m 5,791 ft / 1,765 m 149.07° 170.36° Asphalt 0 ft / 0 m 0 ft / 0 m
35 148 ft / 45 m 5,791 ft / 1,765 m 329.07° 350.36° Asphalt 0 ft / 0 m 0 ft / 0 m